MMLM/LMM METAR and TAF weather

Enter ICAO airport designator
Station Type Date Time Source
MMLM METAR 2022/12/08 03:41 UTC NOAA

MMLM 080341Z 31012KT 10SM FEW100 20/15 A3009 RMK 8/030


Station Type Date Time Source
MMLM Decoded METAR 2022/12/08 03:41 UTC NOAA

Los Mochis Airport, Mexico (MMLM) 25-41N 109-05W
Dec 07, 2022 - 10:41 PM EST / 2022.12.08 0341 UTC
Wind: from the NW (310 degrees) at 14 MPH (12 KT):0
Visibility: 10 mile(s):0
Sky conditions: mostly clear
Temperature: 68 F (20 C)
Dew Point: 59 F (15 C)
Relative Humidity: 72%
Pressure (altimeter): 30.09 in. Hg (1018 hPa)
ob: MMLM 080341Z 31012KT 10SM FEW100 20/15 A3009 RMK 8/030
cycle: 3

Station Type Date Time Source
MMLM TAF 2022/12/08 06:14 UTC NOAA

TAF MMLM 080506Z 0806/0906 34015KT P6SM SCT100
FM081200 34015KT 6SM HZ SCT015
TEMPO 0812/0815 BKN010
FM081600 34010KT P6SM SCT020
FM090300 34015KT P6SM SCT220

Example: see airport list